sensor_id;sensor_type;location;lat;lon;timestamp;temperature;humidity
25640;DHT22;13497;48.322;16.204;2023-05-10T00:00:13;12.60;96.00
25640;DHT22;13497;48.322;16.204;2023-05-10T00:02:39;12.60;96.10
25640;DHT22;13497;48.322;16.204;2023-05-10T00:05:06;12.50;96.20
25640;DHT22;13497;48.322;16.204;2023-05-10T00:07:32;12.50;96.30
25640;DHT22;13497;48.322;16.204;2023-05-10T00:09:57;12.50;96.40
25640;DHT22;13497;48.322;16.204;2023-05-10T00:12:23;12.50;96.40
25640;DHT22;13497;48.322;16.204;2023-05-10T00:14:49;12.50;96.60
25640;DHT22;13497;48.322;16.204;2023-05-10T00:17:14;12.40;96.60
25640;DHT22;13497;48.322;16.204;2023-05-10T00:19:40;12.40;96.70
25640;DHT22;13497;48.322;16.204;2023-05-10T00:22:05;12.40;96.90
25640;DHT22;13497;48.322;16.204;2023-05-10T00:24:31;12.40;96.90
25640;DHT22;13497;48.322;16.204;2023-05-10T00:26:57;12.20;97.10
25640;DHT22;13497;48.322;16.204;2023-05-10T00:29:22;12.20;97.30
25640;DHT22;13497;48.322;16.204;2023-05-10T00:31:48;12.20;97.40
25640;DHT22;13497;48.322;16.204;2023-05-10T00:34:13;12.20;97.50
25640;DHT22;13497;48.322;16.204;2023-05-10T00:36:39;12.10;97.60
25640;DHT22;13497;48.322;16.204;2023-05-10T00:39:05;12.20;97.60
25640;DHT22;13497;48.322;16.204;2023-05-10T00:41:31;12.20;97.70
25640;DHT22;13497;48.322;16.204;2023-05-10T00:44:00;12.20;97.70
25640;DHT22;13497;48.322;16.204;2023-05-10T00:46:27;12.10;97.90
25640;DHT22;13497;48.322;16.204;2023-05-10T00:48:53;12.10;98.10
25640;DHT22;13497;48.322;16.204;2023-05-10T00:51:19;12.10;98.20
25640;DHT22;13497;48.322;16.204;2023-05-10T00:53:46;12.00;98.50
25640;DHT22;13497;48.322;16.204;2023-05-10T00:56:12;12.00;98.60
25640;DHT22;13497;48.322;16.204;2023-05-10T00:58:38;12.00;98.70
25640;DHT22;13497;48.322;16.204;2023-05-10T01:01:04;12.00;98.80
25640;DHT22;13497;48.322;16.204;2023-05-10T01:03:31;12.00;98.90
25640;DHT22;13497;48.322;16.204;2023-05-10T01:05:57;12.00;98.90
25640;DHT22;13497;48.322;16.204;2023-05-10T01:08:23;12.00;99.00
25640;DHT22;13497;48.322;16.204;2023-05-10T01:10:49;11.90;99.10
25640;DHT22;13497;48.322;16.204;2023-05-10T01:13:44;11.90;99.20
25640;DHT22;13497;48.322;16.204;2023-05-10T01:16:10;11.90;99.30
25640;DHT22;13497;48.322;16.204;2023-05-10T01:18:40;11.80;99.40
25640;DHT22;13497;48.322;16.204;2023-05-10T01:21:23;11.80;99.60
25640;DHT22;13497;48.322;16.204;2023-05-10T01:32:31;11.60;99.90
25640;DHT22;13497;48.322;16.204;2023-05-10T01:35:06;11.60;99.90
25640;DHT22;13497;48.322;16.204;2023-05-10T01:38:01;11.60;99.90
25640;DHT22;13497;48.322;16.204;2023-05-10T01:44:07;11.60;99.90
25640;DHT22;13497;48.322;16.204;2023-05-10T01:46:36;11.60;99.90
25640;DHT22;13497;48.322;16.204;2023-05-10T01:49:07;11.60;99.90
25640;DHT22;13497;48.322;16.204;2023-05-10T01:51:39;11.50;99.90
25640;DHT22;13497;48.322;16.204;2023-05-10T01:54:08;11.50;99.90
25640;DHT22;13497;48.322;16.204;2023-05-10T01:56:35;11.50;99.90
25640;DHT22;13497;48.322;16.204;2023-05-10T01:59:06;11.50;99.90
25640;DHT22;13497;48.322;16.204;2023-05-10T02:01:33;11.40;99.90
25640;DHT22;13497;48.322;16.204;2023-05-10T02:04:01;11.40;99.90
25640;DHT22;13497;48.322;16.204;2023-05-10T02:06:27;11.50;99.90
25640;DHT22;13497;48.322;16.204;2023-05-10T02:08:53;11.40;99.90
25640;DHT22;13497;48.322;16.204;2023-05-10T02:11:19;11.40;99.90
25640;DHT22;13497;48.322;16.204;2023-05-10T02:13:48;11.40;99.90
25640;DHT22;13497;48.322;16.204;2023-05-10T02:16:16;11.40;99.90
25640;DHT22;13497;48.322;16.204;2023-05-10T02:18:42;11.40;99.90
25640;DHT22;13497;48.322;16.204;2023-05-10T02:21:10;11.30;99.90
25640;DHT22;13497;48.322;16.204;2023-05-10T02:23:37;11.30;99.90
25640;DHT22;13497;48.322;16.204;2023-05-10T02:26:03;11.30;99.90
25640;DHT22;13497;48.322;16.204;2023-05-10T02:28:30;11.30;99.90
25640;DHT22;13497;48.322;16.204;2023-05-10T02:30:56;11.20;99.90
25640;DHT22;13497;48.322;16.204;2023-05-10T02:33:22;11.20;99.90
25640;DHT22;13497;48.322;16.204;2023-05-10T02:35:50;11.10;99.90
25640;DHT22;13497;48.322;16.204;2023-05-10T02:38:17;11.20;99.90
25640;DHT22;13497;48.322;16.204;2023-05-10T02:40:44;11.20;99.90
25640;DHT22;13497;48.322;16.204;2023-05-10T02:43:14;11.10;99.90
25640;DHT22;13497;48.322;16.204;2023-05-10T02:45:40;11.00;99.90
25640;DHT22;13497;48.322;16.204;2023-05-10T02:48:06;11.00;99.90
25640;DHT22;13497;48.322;16.204;2023-05-10T02:50:33;11.00;99.90
25640;DHT22;13497;48.322;16.204;2023-05-10T02:53:00;10.90;99.90
25640;DHT22;13497;48.322;16.204;2023-05-10T02:55:30;10.90;99.90
25640;DHT22;13497;48.322;16.204;2023-05-10T02:57:59;10.90;99.90
25640;DHT22;13497;48.322;16.204;2023-05-10T03:00:26;10.90;99.90
25640;DHT22;13497;48.322;16.204;2023-05-10T03:02:52;11.00;99.90
25640;DHT22;13497;48.322;16.204;2023-05-10T03:05:18;10.90;99.90
25640;DHT22;13497;48.322;16.204;2023-05-10T03:07:44;10.90;99.90
25640;DHT22;13497;48.322;16.204;2023-05-10T03:10:10;10.90;99.90
25640;DHT22;13497;48.322;16.204;2023-05-10T03:15:44;10.90;99.90
25640;DHT22;13497;48.322;16.204;2023-05-10T03:18:15;10.90;99.90
25640;DHT22;13497;48.322;16.204;2023-05-10T03:20:43;10.90;99.90
25640;DHT22;13497;48.322;16.204;2023-05-10T03:23:27;10.90;99.90
25640;DHT22;13497;48.322;16.204;2023-05-10T03:25:55;10.90;99.90
25640;DHT22;13497;48.322;16.204;2023-05-10T03:28:22;10.90;99.90
25640;DHT22;13497;48.322;16.204;2023-05-10T03:30:52;10.90;99.90
25640;DHT22;13497;48.322;16.204;2023-05-10T03:33:18;10.90;99.90
25640;DHT22;13497;48.322;16.204;2023-05-10T03:35:44;10.80;99.90
25640;DHT22;13497;48.322;16.204;2023-05-10T03:38:11;10.80;99.90
25640;DHT22;13497;48.322;16.204;2023-05-10T03:40:37;10.80;99.90
25640;DHT22;13497;48.322;16.204;2023-05-10T03:43:03;10.80;99.90
25640;DHT22;13497;48.322;16.204;2023-05-10T03:45:28;10.70;99.90
25640;DHT22;13497;48.322;16.204;2023-05-10T03:47:54;10.70;99.90
25640;DHT22;13497;48.322;16.204;2023-05-10T03:50:20;10.60;99.90
25640;DHT22;13497;48.322;16.204;2023-05-10T03:52:46;10.60;99.90
25640;DHT22;13497;48.322;16.204;2023-05-10T03:55:12;10.70;99.90
25640;DHT22;13497;48.322;16.204;2023-05-10T03:57:37;10.70;99.90
25640;DHT22;13497;48.322;16.204;2023-05-10T04:00:04;10.70;99.90
25640;DHT22;13497;48.322;16.204;2023-05-10T04:02:30;10.70;99.90
25640;DHT22;13497;48.322;16.204;2023-05-10T04:04:56;10.70;99.90
25640;DHT22;13497;48.322;16.204;2023-05-10T04:07:22;10.70;99.90
25640;DHT22;13497;48.322;16.204;2023-05-10T04:09:47;10.80;99.90
25640;DHT22;13497;48.322;16.204;2023-05-10T04:12:13;11.20;99.90
25640;DHT22;13497;48.322;16.204;2023-05-10T04:14:39;12.10;99.90
25640;DHT22;13497;48.322;16.204;2023-05-10T04:17:04;12.80;99.90
25640;DHT22;13497;48.322;16.204;2023-05-10T04:19:31;13.00;99.90
25640;DHT22;13497;48.322;16.204;2023-05-10T04:21:57;13.60;99.90
25640;DHT22;13497;48.322;16.204;2023-05-10T04:24:24;13.90;99.60
25640;DHT22;13497;48.322;16.204;2023-05-10T04:26:50;14.00;99.30
25640;DHT22;13497;48.322;16.204;2023-05-10T04:29:16;14.60;98.40
25640;DHT22;13497;48.322;16.204;2023-05-10T04:31:41;14.50;98.50
25640;DHT22;13497;48.322;16.204;2023-05-10T04:34:07;14.50;98.20
25640;DHT22;13497;48.322;16.204;2023-05-10T04:36:32;14.80;97.60
25640;DHT22;13497;48.322;16.204;2023-05-10T04:39:00;15.30;97.20
25640;DHT22;13497;48.322;16.204;2023-05-10T04:41:26;15.40;96.90
25640;DHT22;13497;48.322;16.204;2023-05-10T04:43:52;15.60;96.60
25640;DHT22;13497;48.322;16.204;2023-05-10T04:46:17;15.40;96.90
25640;DHT22;13497;48.322;16.204;2023-05-10T04:48:43;15.80;96.00
25640;DHT22;13497;48.322;16.204;2023-05-10T04:51:08;15.70;96.20
25640;DHT22;13497;48.322;16.204;2023-05-10T04:53:34;15.70;95.90
25640;DHT22;13497;48.322;16.204;2023-05-10T04:55:59;15.80;95.80
25640;DHT22;13497;48.322;16.204;2023-05-10T04:58:25;16.00;95.60
25640;DHT22;13497;48.322;16.204;2023-05-10T05:00:51;16.50;94.80
25640;DHT22;13497;48.322;16.204;2023-05-10T05:03:17;16.40;95.10
25640;DHT22;13497;48.322;16.204;2023-05-10T05:05:43;16.30;94.80
25640;DHT22;13497;48.322;16.204;2023-05-10T05:08:09;16.30;94.80
25640;DHT22;13497;48.322;16.204;2023-05-10T05:10:35;17.00;94.40
25640;DHT22;13497;48.322;16.204;2023-05-10T05:13:01;17.60;93.40
25640;DHT22;13497;48.322;16.204;2023-05-10T05:15:26;17.70;93.00
25640;DHT22;13497;48.322;16.204;2023-05-10T05:17:52;18.10;93.10
25640;DHT22;13497;48.322;16.204;2023-05-10T05:20:18;18.30;92.20
25640;DHT22;13497;48.322;16.204;2023-05-10T05:22:44;18.50;91.80
25640;DHT22;13497;48.322;16.204;2023-05-10T05:25:10;17.90;92.00
25640;DHT22;13497;48.322;16.204;2023-05-10T05:27:37;17.90;92.30
25640;DHT22;13497;48.322;16.204;2023-05-10T05:30:03;18.00;92.20
25640;DHT22;13497;48.322;16.204;2023-05-10T05:32:29;18.20;91.90
25640;DHT22;13497;48.322;16.204;2023-05-10T05:34:55;17.80;92.40
25640;DHT22;13497;48.322;16.204;2023-05-10T05:37:21;17.70;92.40
25640;DHT22;13497;48.322;16.204;2023-05-10T05:39:48;18.00;92.30
25640;DHT22;13497;48.322;16.204;2023-05-10T05:42:13;17.70;92.30
25640;DHT22;13497;48.322;16.204;2023-05-10T05:44:40;17.40;92.60
25640;DHT22;13497;48.322;16.204;2023-05-10T05:47:06;17.70;92.60
25640;DHT22;13497;48.322;16.204;2023-05-10T05:49:32;17.60;92.50
25640;DHT22;13497;48.322;16.204;2023-05-10T05:52:04;17.70;92.80
25640;DHT22;13497;48.322;16.204;2023-05-10T05:54:30;17.80;92.40
25640;DHT22;13497;48.322;16.204;2023-05-10T05:56:57;18.20;91.90
25640;DHT22;13497;48.322;16.204;2023-05-10T05:59:23;17.70;92.20
25640;DHT22;13497;48.322;16.204;2023-05-10T06:01:49;17.60;92.90
25640;DHT22;13497;48.322;16.204;2023-05-10T06:04:15;18.60;91.70
25640;DHT22;13497;48.322;16.204;2023-05-10T06:06:41;18.90;91.00
25640;DHT22;13497;48.322;16.204;2023-05-10T06:09:07;18.30;91.50
25640;DHT22;13497;48.322;16.204;2023-05-10T06:11:34;18.40;91.60
25640;DHT22;13497;48.322;16.204;2023-05-10T06:14:00;18.20;91.70
25640;DHT22;13497;48.322;16.204;2023-05-10T06:16:26;18.20;92.00
25640;DHT22;13497;48.322;16.204;2023-05-10T06:18:51;18.20;92.20
25640;DHT22;13497;48.322;16.204;2023-05-10T06:21:17;18.40;91.60
25640;DHT22;13497;48.322;16.204;2023-05-10T06:23:42;18.30;91.90
25640;DHT22;13497;48.322;16.204;2023-05-10T06:26:10;18.60;91.50
25640;DHT22;13497;48.322;16.204;2023-05-10T06:28:36;18.50;91.90
25640;DHT22;13497;48.322;16.204;2023-05-10T06:31:04;18.40;91.80
25640;DHT22;13497;48.322;16.204;2023-05-10T06:33:30;17.70;92.20
25640;DHT22;13497;48.322;16.204;2023-05-10T06:35:55;17.20;93.20
25640;DHT22;13497;48.322;16.204;2023-05-10T06:38:21;16.90;93.30
25640;DHT22;13497;48.322;16.204;2023-05-10T06:40:47;16.70;93.40
25640;DHT22;13497;48.322;16.204;2023-05-10T06:43:13;16.60;92.90
25640;DHT22;13497;48.322;16.204;2023-05-10T06:45:38;16.40;93.10
25640;DHT22;13497;48.322;16.204;2023-05-10T06:48:04;16.30;92.70
25640;DHT22;13497;48.322;16.204;2023-05-10T06:50:30;16.30;92.90
25640;DHT22;13497;48.322;16.204;2023-05-10T06:52:55;16.30;93.00
25640;DHT22;13497;48.322;16.204;2023-05-10T06:55:21;16.40;92.80
25640;DHT22;13497;48.322;16.204;2023-05-10T06:57:47;16.40;92.30
25640;DHT22;13497;48.322;16.204;2023-05-10T07:00:13;16.40;92.50
25640;DHT22;13497;48.322;16.204;2023-05-10T07:02:39;16.50;92.50
25640;DHT22;13497;48.322;16.204;2023-05-10T07:05:05;16.50;91.80
25640;DHT22;13497;48.322;16.204;2023-05-10T07:07:31;16.30;91.90
25640;DHT22;13497;48.322;16.204;2023-05-10T07:09:57;16.30;91.80
25640;DHT22;13497;48.322;16.204;2023-05-10T07:12:23;16.20;92.10
25640;DHT22;13497;48.322;16.204;2023-05-10T07:14:49;16.40;92.30
25640;DHT22;13497;48.322;16.204;2023-05-10T07:17:15;16.60;92.30
25640;DHT22;13497;48.322;16.204;2023-05-10T07:19:40;16.60;92.00
25640;DHT22;13497;48.322;16.204;2023-05-10T07:22:06;16.60;92.10
25640;DHT22;13497;48.322;16.204;2023-05-10T07:24:32;16.60;92.20
25640;DHT22;13497;48.322;16.204;2023-05-10T07:26:58;16.60;92.20
25640;DHT22;13497;48.322;16.204;2023-05-10T07:29:24;16.70;92.20
25640;DHT22;13497;48.322;16.204;2023-05-10T07:31:49;16.70;92.20
25640;DHT22;13497;48.322;16.204;2023-05-10T07:34:15;16.70;91.90
25640;DHT22;13497;48.322;16.204;2023-05-10T07:36:41;16.90;92.20
25640;DHT22;13497;48.322;16.204;2023-05-10T07:39:06;17.20;92.10
25640;DHT22;13497;48.322;16.204;2023-05-10T07:41:32;17.40;91.80
25640;DHT22;13497;48.322;16.204;2023-05-10T07:43:58;17.70;91.90
25640;DHT22;13497;48.322;16.204;2023-05-10T07:46:24;17.50;91.40
25640;DHT22;13497;48.322;16.204;2023-05-10T07:48:49;17.40;91.90
25640;DHT22;13497;48.322;16.204;2023-05-10T07:51:15;17.60;91.60
25640;DHT22;13497;48.322;16.204;2023-05-10T07:53:41;17.70;91.50
25640;DHT22;13497;48.322;16.204;2023-05-10T07:56:26;17.80;91.10
25640;DHT22;13497;48.322;16.204;2023-05-10T07:58:55;17.60;90.80
25640;DHT22;13497;48.322;16.204;2023-05-10T08:01:21;17.90;91.10
25640;DHT22;13497;48.322;16.204;2023-05-10T08:03:47;18.10;91.00
25640;DHT22;13497;48.322;16.204;2023-05-10T08:06:14;18.30;90.50
25640;DHT22;13497;48.322;16.204;2023-05-10T08:08:40;18.50;90.40
25640;DHT22;13497;48.322;16.204;2023-05-10T08:11:06;18.50;90.40
25640;DHT22;13497;48.322;16.204;2023-05-10T08:13:32;18.80;90.40
25640;DHT22;13497;48.322;16.204;2023-05-10T08:15:58;18.60;90.10
25640;DHT22;13497;48.322;16.204;2023-05-10T08:18:24;18.90;90.30
25640;DHT22;13497;48.322;16.204;2023-05-10T08:20:50;19.20;90.00
25640;DHT22;13497;48.322;16.204;2023-05-10T08:23:15;19.60;89.40
25640;DHT22;13497;48.322;16.204;2023-05-10T08:25:41;19.60;89.10
25640;DHT22;13497;48.322;16.204;2023-05-10T08:28:07;19.30;90.00
25640;DHT22;13497;48.322;16.204;2023-05-10T08:30:32;19.10;89.60
25640;DHT22;13497;48.322;16.204;2023-05-10T08:32:58;18.80;89.50
25640;DHT22;13497;48.322;16.204;2023-05-10T08:35:24;19.00;90.30
25640;DHT22;13497;48.322;16.204;2023-05-10T08:37:50;19.50;90.10
25640;DHT22;13497;48.322;16.204;2023-05-10T08:40:19;19.80;89.80
25640;DHT22;13497;48.322;16.204;2023-05-10T08:42:51;19.80;89.80
25640;DHT22;13497;48.322;16.204;2023-05-10T08:45:23;19.90;89.90
25640;DHT22;13497;48.322;16.204;2023-05-10T08:47:49;19.70;89.00
25640;DHT22;13497;48.322;16.204;2023-05-10T08:50:18;19.50;89.90
25640;DHT22;13497;48.322;16.204;2023-05-10T08:52:45;19.50;89.50
25640;DHT22;13497;48.322;16.204;2023-05-10T08:55:13;19.10;89.90
25640;DHT22;13497;48.322;16.204;2023-05-10T08:57:38;19.10;90.40
25640;DHT22;13497;48.322;16.204;2023-05-10T09:00:05;19.00;90.40
25640;DHT22;13497;48.322;16.204;2023-05-10T09:02:31;18.90;90.40
25640;DHT22;13497;48.322;16.204;2023-05-10T09:04:56;18.50;90.30
25640;DHT22;13497;48.322;16.204;2023-05-10T09:07:22;18.60;90.20
25640;DHT22;13497;48.322;16.204;2023-05-10T09:09:48;18.70;90.20
25640;DHT22;13497;48.322;16.204;2023-05-10T09:12:14;18.60;90.30
25640;DHT22;13497;48.322;16.204;2023-05-10T09:14:42;18.90;90.50
25640;DHT22;13497;48.322;16.204;2023-05-10T09:17:09;19.10;90.50
25640;DHT22;13497;48.322;16.204;2023-05-10T09:19:35;18.80;90.40
25640;DHT22;13497;48.322;16.204;2023-05-10T09:22:01;18.70;90.90
25640;DHT22;13497;48.322;16.204;2023-05-10T09:24:29;19.00;91.00
25640;DHT22;13497;48.322;16.204;2023-05-10T09:26:57;18.90;91.00
25640;DHT22;13497;48.322;16.204;2023-05-10T09:29:23;18.70;91.10
25640;DHT22;13497;48.322;16.204;2023-05-10T09:31:52;18.90;91.20
25640;DHT22;13497;48.322;16.204;2023-05-10T09:34:30;19.20;91.10
25640;DHT22;13497;48.322;16.204;2023-05-10T09:36:58;19.40;90.50
25640;DHT22;13497;48.322;16.204;2023-05-10T09:39:33;19.60;89.60
25640;DHT22;13497;48.322;16.204;2023-05-10T09:42:06;19.80;89.20
25640;DHT22;13497;48.322;16.204;2023-05-10T09:44:33;19.90;88.80
25640;DHT22;13497;48.322;16.204;2023-05-10T09:47:03;19.70;89.30
25640;DHT22;13497;48.322;16.204;2023-05-10T09:49:29;19.70;88.50
25640;DHT22;13497;48.322;16.204;2023-05-10T09:52:03;19.30;89.60
25640;DHT22;13497;48.322;16.204;2023-05-10T09:54:29;19.30;90.00
25640;DHT22;13497;48.322;16.204;2023-05-10T09:56:55;19.50;89.80
25640;DHT22;13497;48.322;16.204;2023-05-10T09:59:20;20.00;89.20
25640;DHT22;13497;48.322;16.204;2023-05-10T10:01:50;20.10;88.40
25640;DHT22;13497;48.322;16.204;2023-05-10T10:04:17;19.80;88.80
25640;DHT22;13497;48.322;16.204;2023-05-10T10:06:42;20.10;89.20
25640;DHT22;13497;48.322;16.204;2023-05-10T10:09:09;19.90;88.10
25640;DHT22;13497;48.322;16.204;2023-05-10T10:11:37;19.60;88.60
25640;DHT22;13497;48.322;16.204;2023-05-10T10:14:03;19.50;88.90
25640;DHT22;13497;48.322;16.204;2023-05-10T10:16:29;19.30;88.90
25640;DHT22;13497;48.322;16.204;2023-05-10T10:18:55;19.20;89.20
25640;DHT22;13497;48.322;16.204;2023-05-10T10:21:22;19.10;89.50
25640;DHT22;13497;48.322;16.204;2023-05-10T10:23:48;19.60;89.70
25640;DHT22;13497;48.322;16.204;2023-05-10T10:26:14;19.70;87.90
25640;DHT22;13497;48.322;16.204;2023-05-10T10:34:31;19.20;89.30
25640;DHT22;13497;48.322;16.204;2023-05-10T10:36:57;19.40;88.70
25640;DHT22;13497;48.322;16.204;2023-05-10T10:39:26;19.70;88.60
25640;DHT22;13497;48.322;16.204;2023-05-10T10:41:56;19.80;87.70
25640;DHT22;13497;48.322;16.204;2023-05-10T10:52:15;20.10;84.40
25640;DHT22;13497;48.322;16.204;2023-05-10T10:54:41;20.30;84.60
25640;DHT22;13497;48.322;16.204;2023-05-10T10:57:13;20.60;85.10
25640;DHT22;13497;48.322;16.204;2023-05-10T10:59:42;21.30;84.70
25640;DHT22;13497;48.322;16.204;2023-05-10T11:02:09;21.80;82.90
25640;DHT22;13497;48.322;16.204;2023-05-10T11:04:44;21.80;82.20
25640;DHT22;13497;48.322;16.204;2023-05-10T11:07:18;21.50;81.00
25640;DHT22;13497;48.322;16.204;2023-05-10T11:09:46;20.80;80.90
25640;DHT22;13497;48.322;16.204;2023-05-10T11:12:12;20.90;80.10
25640;DHT22;13497;48.322;16.204;2023-05-10T11:14:38;20.90;80.60
25640;DHT22;13497;48.322;16.204;2023-05-10T11:17:24;20.80;80.80
25640;DHT22;13497;48.322;16.204;2023-05-10T11:20:10;20.60;81.50
25640;DHT22;13497;48.322;16.204;2023-05-10T11:22:52;20.40;82.30
25640;DHT22;13497;48.322;16.204;2023-05-10T11:25:18;20.50;83.00
25640;DHT22;13497;48.322;16.204;2023-05-10T11:27:44;20.30;81.00
25640;DHT22;13497;48.322;16.204;2023-05-10T11:30:10;20.10;81.60
25640;DHT22;13497;48.322;16.204;2023-05-10T11:32:40;19.90;82.50
25640;DHT22;13497;48.322;16.204;2023-05-10T11:35:10;20.10;82.90
25640;DHT22;13497;48.322;16.204;2023-05-10T11:37:36;20.10;84.50
25640;DHT22;13497;48.322;16.204;2023-05-10T11:40:02;20.50;84.80
25640;DHT22;13497;48.322;16.204;2023-05-10T11:42:29;20.50;84.40
25640;DHT22;13497;48.322;16.204;2023-05-10T11:44:55;20.50;84.60
25640;DHT22;13497;48.322;16.204;2023-05-10T11:47:21;20.30;84.60
25640;DHT22;13497;48.322;16.204;2023-05-10T11:49:48;20.70;85.20
25640;DHT22;13497;48.322;16.204;2023-05-10T11:52:13;20.70;84.50
25640;DHT22;13497;48.322;16.204;2023-05-10T11:54:51;20.60;84.80
25640;DHT22;13497;48.322;16.204;2023-05-10T11:57:18;20.40;84.60
25640;DHT22;13497;48.322;16.204;2023-05-10T11:59:45;20.50;84.90
25640;DHT22;13497;48.322;16.204;2023-05-10T12:02:13;20.40;84.90
25640;DHT22;13497;48.322;16.204;2023-05-10T12:04:38;20.20;84.50
25640;DHT22;13497;48.322;16.204;2023-05-10T12:07:04;20.30;83.90
25640;DHT22;13497;48.322;16.204;2023-05-10T12:09:30;20.50;84.40
25640;DHT22;13497;48.322;16.204;2023-05-10T12:11:56;20.40;84.50
25640;DHT22;13497;48.322;16.204;2023-05-10T12:14:25;20.60;85.20
25640;DHT22;13497;48.322;16.204;2023-05-10T12:16:50;20.40;83.20
25640;DHT22;13497;48.322;16.204;2023-05-10T12:19:19;20.40;84.40
25640;DHT22;13497;48.322;16.204;2023-05-10T12:21:48;20.90;82.00
25640;DHT22;13497;48.322;16.204;2023-05-10T12:24:14;21.00;81.00
25640;DHT22;13497;48.322;16.204;2023-05-10T12:26:43;20.90;83.00
25640;DHT22;13497;48.322;16.204;2023-05-10T12:29:15;21.10;83.20
25640;DHT22;13497;48.322;16.204;2023-05-10T12:34:33;21.80;81.20
25640;DHT22;13497;48.322;16.204;2023-05-10T12:36:59;21.50;81.30
25640;DHT22;13497;48.322;16.204;2023-05-10T12:39:25;21.30;82.60
25640;DHT22;13497;48.322;16.204;2023-05-10T12:41:51;21.70;82.40
25640;DHT22;13497;48.322;16.204;2023-05-10T12:44:17;21.80;81.70
25640;DHT22;13497;48.322;16.204;2023-05-10T12:46:43;21.10;81.20
25640;DHT22;13497;48.322;16.204;2023-05-10T12:49:09;20.80;81.60
25640;DHT22;13497;48.322;16.204;2023-05-10T12:51:35;20.70;80.60
25640;DHT22;13497;48.322;16.204;2023-05-10T12:54:01;20.80;82.20
25640;DHT22;13497;48.322;16.204;2023-05-10T12:56:27;21.10;81.40
25640;DHT22;13497;48.322;16.204;2023-05-10T12:58:53;20.90;82.20
25640;DHT22;13497;48.322;16.204;2023-05-10T13:01:18;20.80;82.10
25640;DHT22;13497;48.322;16.204;2023-05-10T13:03:44;20.70;82.70
25640;DHT22;13497;48.322;16.204;2023-05-10T13:06:09;20.60;82.60
25640;DHT22;13497;48.322;16.204;2023-05-10T13:08:35;20.50;82.10
25640;DHT22;13497;48.322;16.204;2023-05-10T13:11:03;20.70;81.10
25640;DHT22;13497;48.322;16.204;2023-05-10T13:13:28;20.50;80.90
25640;DHT22;13497;48.322;16.204;2023-05-10T13:15:54;20.60;81.50
25640;DHT22;13497;48.322;16.204;2023-05-10T13:18:20;20.90;80.30
25640;DHT22;13497;48.322;16.204;2023-05-10T13:20:45;20.80;80.70
25640;DHT22;13497;48.322;16.204;2023-05-10T13:23:11;20.70;80.80
25640;DHT22;13497;48.322;16.204;2023-05-10T13:25:37;21.10;81.80
25640;DHT22;13497;48.322;16.204;2023-05-10T13:28:02;21.70;81.00
25640;DHT22;13497;48.322;16.204;2023-05-10T13:30:28;21.90;79.00
25640;DHT22;13497;48.322;16.204;2023-05-10T13:32:54;21.90;79.60
25640;DHT22;13497;48.322;16.204;2023-05-10T13:35:20;21.60;80.30
25640;DHT22;13497;48.322;16.204;2023-05-10T13:37:46;21.80;79.60
25640;DHT22;13497;48.322;16.204;2023-05-10T13:40:11;21.70;79.00
25640;DHT22;13497;48.322;16.204;2023-05-10T13:42:37;21.60;80.30
25640;DHT22;13497;48.322;16.204;2023-05-10T13:45:03;21.60;80.30
25640;DHT22;13497;48.322;16.204;2023-05-10T13:47:29;21.70;80.30
25640;DHT22;13497;48.322;16.204;2023-05-10T13:49:55;21.50;80.40
25640;DHT22;13497;48.322;16.204;2023-05-10T13:52:21;21.10;81.10
25640;DHT22;13497;48.322;16.204;2023-05-10T13:54:47;21.10;82.20
25640;DHT22;13497;48.322;16.204;2023-05-10T13:57:12;21.20;80.40
25640;DHT22;13497;48.322;16.204;2023-05-10T13:59:39;21.50;81.00
25640;DHT22;13497;48.322;16.204;2023-05-10T14:02:05;21.50;80.30
25640;DHT22;13497;48.322;16.204;2023-05-10T14:04:31;21.50;80.40
25640;DHT22;13497;48.322;16.204;2023-05-10T14:06:57;21.70;81.70
25640;DHT22;13497;48.322;16.204;2023-05-10T14:09:23;21.70;80.90
25640;DHT22;13497;48.322;16.204;2023-05-10T14:11:48;21.80;81.40
25640;DHT22;13497;48.322;16.204;2023-05-10T14:14:14;22.20;81.10
25640;DHT22;13497;48.322;16.204;2023-05-10T14:16:43;22.00;79.40
25640;DHT22;13497;48.322;16.204;2023-05-10T14:19:10;21.80;80.00
25640;DHT22;13497;48.322;16.204;2023-05-10T14:21:36;22.00;80.50
25640;DHT22;13497;48.322;16.204;2023-05-10T14:24:01;22.50;79.20
25640;DHT22;13497;48.322;16.204;2023-05-10T14:26:27;22.40;78.00
25640;DHT22;13497;48.322;16.204;2023-05-10T14:28:53;22.10;78.70
25640;DHT22;13497;48.322;16.204;2023-05-10T14:31:19;21.90;79.60
25640;DHT22;13497;48.322;16.204;2023-05-10T14:33:48;21.60;79.30
25640;DHT22;13497;48.322;16.204;2023-05-10T14:36:14;21.50;80.10
25640;DHT22;13497;48.322;16.204;2023-05-10T14:38:40;21.50;79.70
25640;DHT22;13497;48.322;16.204;2023-05-10T14:41:06;21.40;78.90
25640;DHT22;13497;48.322;16.204;2023-05-10T14:43:31;21.20;79.60
25640;DHT22;13497;48.322;16.204;2023-05-10T14:45:57;21.20;78.80
25640;DHT22;13497;48.322;16.204;2023-05-10T14:48:23;21.40;79.30
25640;DHT22;13497;48.322;16.204;2023-05-10T14:50:49;21.50;78.00
25640;DHT22;13497;48.322;16.204;2023-05-10T14:53:15;21.50;78.10
25640;DHT22;13497;48.322;16.204;2023-05-10T14:55:41;21.40;77.70
25640;DHT22;13497;48.322;16.204;2023-05-10T14:58:06;21.30;77.40
25640;DHT22;13497;48.322;16.204;2023-05-10T15:00:32;21.30;77.20
25640;DHT22;13497;48.322;16.204;2023-05-10T15:02:58;21.30;77.60
25640;DHT22;13497;48.322;16.204;2023-05-10T15:05:24;21.70;77.70
25640;DHT22;13497;48.322;16.204;2023-05-10T15:07:49;22.10;76.90
25640;DHT22;13497;48.322;16.204;2023-05-10T15:10:15;22.10;76.10
25640;DHT22;13497;48.322;16.204;2023-05-10T15:12:41;21.60;76.60
25640;DHT22;13497;48.322;16.204;2023-05-10T15:15:07;21.60;76.10
25640;DHT22;13497;48.322;16.204;2023-05-10T15:17:33;21.40;76.30
25640;DHT22;13497;48.322;16.204;2023-05-10T15:19:59;21.50;75.70
25640;DHT22;13497;48.322;16.204;2023-05-10T15:22:25;21.30;75.30
25640;DHT22;13497;48.322;16.204;2023-05-10T15:24:53;21.30;75.10
25640;DHT22;13497;48.322;16.204;2023-05-10T15:27:19;21.40;75.20
25640;DHT22;13497;48.322;16.204;2023-05-10T15:29:44;21.20;74.90
25640;DHT22;13497;48.322;16.204;2023-05-10T15:32:10;20.90;73.90
25640;DHT22;13497;48.322;16.204;2023-05-10T15:34:36;20.80;75.20
25640;DHT22;13497;48.322;16.204;2023-05-10T15:37:02;20.70;76.20
25640;DHT22;13497;48.322;16.204;2023-05-10T15:39:28;20.80;76.00
25640;DHT22;13497;48.322;16.204;2023-05-10T15:41:53;20.70;75.60
25640;DHT22;13497;48.322;16.204;2023-05-10T15:44:19;20.80;76.30